Welcome to Northern Hawkes Bay. New Zealand.
PWS Header
      nz Flag



Hit Counter


W3C Valid W3C Valid logo


    Wairoa

Select any of the Stations below to visit their websites.










Historic Data from Weather Underground
Select the location of interest below. Wairoa is the default. Please have patience, this Data is slow to load in.
Northern Hawkes Bay Historical Data
Daily Summary for June 17, 2017 Units:  Metric    English   Both
« Previous Day
Next Day »
Daily Weekly Monthly Yearly Custom
  High: Low: Average:
Temperature: 16.4 °C 7.6 °C 10.2 °C
Dew Point: 12.4 °C 7.2 °C 9.2 °C
Humidity: 99% 73% 94%
Wind Speed: 9.7km/h 0.0km/h 2.8km/h
Wind Gust: 13.4km/h - -
Wind- - WSW
Pressure: 1031.4 hPa 1026.6 hPa -
Precipitation: 0.3 mm    
Historical Graphs
 
 
Tabular Data for June 17, 2017
Time Temperature Dew Point Pressure Wind Wind Speed Wind Gust Humidity Rainfall Rate (Hourly) solar
00:02 9.3 °C 9.2 °C 1027.0 hPa NW 2.6 km/h 3.5 km/h 99% 0.0 mm 0 W/m2
00:07 9.3 °C 9.2 °C 1027.0 hPa NW 2.6 km/h 5.0 km/h 99% 0.0 mm 0 W/m2
00:12 9.2 °C 9.1 °C 1027.0 hPa NW 2.6 km/h 5.0 km/h 99% 0.0 mm 0 W/m2
00:17 9.1 °C 8.9 °C 1027.0 hPa NW 2.6 km/h 5.0 km/h 99% 0.0 mm 0 W/m2
00:22 9.1 °C 8.9 °C 1027.0 hPa NW 1.1 km/h 3.5 km/h 99% 0.0 mm 0 W/m2
00:27 9.0 °C 8.8 °C 1027.0 hPa NW 2.6 km/h 3.5 km/h 99% 0.0 mm 0 W/m2
00:32 8.9 °C 8.8 °C 1027.0 hPa NNW 2.6 km/h 3.5 km/h 99% 0.0 mm 0 W/m2
00:37 8.9 °C 8.8 °C 1027.0 hPa NW 2.6 km/h 5.0 km/h 99% 0.0 mm 0 W/m2
00:42 8.9 °C 8.8 °C 1027.0 hPa NW 2.6 km/h 5.0 km/h 99% 0.0 mm 0 W/m2
00:48 8.9 °C 8.8 °C 1027.0 hPa NW 1.1 km/h 3.5 km/h 99% 0.0 mm 0 W/m2
00:53 8.8 °C 8.7 °C 1027.0 hPa NW 2.6 km/h 3.5 km/h 99% 0.0 mm 0 W/m2
00:58 8.7 °C 8.6 °C 1026.6 hPa NNW 2.6 km/h 3.5 km/h 99% 0.0 mm 0 W/m2
01:03 8.6 °C 8.4 °C 1027.0 hPa NNW 1.1 km/h 3.5 km/h 99% 0.0 mm 0 W/m2
01:08 8.6 °C 8.4 °C 1027.0 hPa NNW 1.1 km/h 3.5 km/h 99% 0.0 mm 0 W/m2
01:13 8.5 °C 8.3 °C 1027.0 hPa NNW 1.1 km/h 3.5 km/h 99% 0.0 mm 0 W/m2
01:18 8.4 °C 8.3 °C 1027.0 hPa NW 1.1 km/h 3.5 km/h 99% 0.0 mm 0 W/m2
01:23 8.4 °C 8.3 °C 1026.6 hPa NNW 1.1 km/h 3.5 km/h 99% 0.0 mm 0 W/m2
01:28 8.4 °C 8.3 °C 1027.0 hPa North 1.1 km/h 3.5 km/h 99% 0.0 mm 0 W/m2
01:33 8.3 °C 8.2 °C 1027.0 hPa North 1.1 km/h 3.5 km/h 99% 0.0 mm 0 W/m2
01:38 8.3 °C 8.2 °C 1027.0 hPa North 1.1 km/h 3.5 km/h 99% 0.0 mm 0 W/m2
01:43 8.3 °C 8.2 °C 1027.0 hPa Calm   3.5 km/h 99% 0.0 mm 0 W/m2
01:48 8.3 °C 8.2 °C 1027.3 hPa NNW 2.6 km/h 3.5 km/h 99% 0.0 mm 0 W/m2
02:07 8.5 °C 8.3 °C 1027.0 hPa NW 1.1 km/h 5.0 km/h 99% 0.0 mm 0 W/m2
02:12 8.5 °C 8.3 °C 1027.0 hPa NNW 2.6 km/h 6.1 km/h 99% 0.0 mm 0 W/m2
02:17 8.5 °C 8.3 °C 1027.3 hPa NNW 2.6 km/h 6.1 km/h 99% 0.0 mm 0 W/m2
02:22 8.5 °C 8.3 °C 1027.3 hPa NNW 2.6 km/h 5.0 km/h 99% 0.0 mm 0 W/m2
02:27 8.5 °C 8.3 °C 1027.3 hPa North 1.1 km/h 3.5 km/h 99% 0.0 mm 0 W/m2
02:32 8.5 °C 8.3 °C 1027.3 hPa North 1.1 km/h 3.5 km/h 99% 0.0 mm 0 W/m2
02:37 8.5 °C 8.3 °C 1027.3 hPa NNW 2.6 km/h 3.5 km/h 99% 0.0 mm 0 W/m2
02:42 8.5 °C 8.3 °C 1027.3 hPa NNW 2.6 km/h 3.5 km/h 99% 0.0 mm 0 W/m2
02:47 8.5 °C 8.3 °C 1027.3 hPa NW 1.1 km/h 3.5 km/h 99% 0.0 mm 0 W/m2
02:52 8.7 °C 8.6 °C 1027.3 hPa NW 2.6 km/h 5.0 km/h 99% 0.3 mm 0 W/m2
02:57 8.7 °C 8.6 °C 1027.3 hPa NW 2.6 km/h 5.0 km/h 99% 0.3 mm 0 W/m2
03:02 8.7 °C 8.6 °C 1027.3 hPa NNW 3.5 km/h 5.0 km/h 99% 0.3 mm 0 W/m2
03:07 8.8 °C 8.7 °C 1027.3 hPa NNW 3.5 km/h 5.0 km/h 99% 0.3 mm 0 W/m2
03:12 8.8 °C 8.7 °C 1027.3 hPa NNW 2.6 km/h 5.0 km/h 99% 0.3 mm 0 W/m2
03:17 8.8 °C 8.7 °C 1027.3 hPa NNW 2.6 km/h 5.0 km/h 99% 0.3 mm 0 W/m2
03:22 8.8 °C 8.7 °C 1027.3 hPa NNW 2.6 km/h 5.0 km/h 99% 0.3 mm 0 W/m2
03:27 8.8 °C 8.7 °C 1027.3 hPa NNW 2.6 km/h 5.0 km/h 99% 0.3 mm 0 W/m2
03:32 8.9 °C 8.8 °C 1027.3 hPa North 2.6 km/h 5.0 km/h 99% 0.3 mm 0 W/m2
03:37 8.9 °C 8.8 °C 1027.3 hPa NNW 2.6 km/h 5.0 km/h 99% 0.3 mm 0 W/m2
03:42 8.9 °C 8.8 °C 1027.3 hPa NNW 3.5 km/h 5.0 km/h 99% 0.3 mm 0 W/m2
03:48 8.9 °C 8.8 °C 1027.3 hPa North 2.6 km/h 5.0 km/h 99% 0.3 mm 0 W/m2
03:53 8.9 °C 8.8 °C 1027.3 hPa North 1.1 km/h 3.5 km/h 99% 0.0 mm 0 W/m2
03:58 8.9 °C 8.8 °C 1027.3 hPa North 1.1 km/h 5.0 km/h 99% 0.0 mm 0 W/m2
04:03 8.9 °C 8.8 °C 1027.3 hPa NNW 2.6 km/h 5.0 km/h 99% 0.0 mm 0 W/m2
04:08 8.9 °C 8.8 °C 1027.3 hPa NNW 2.6 km/h 5.0 km/h 99% 0.0 mm 0 W/m2
04:13 8.8 °C 8.7 °C 1027.3 hPa NW 1.1 km/h 5.0 km/h 99% 0.0 mm 0 W/m2
04:18 8.7 °C 8.6 °C 1027.3 hPa NW 2.6 km/h 5.0 km/h 99% 0.0 mm 0 W/m2
04:23 8.7 °C 8.6 °C 1027.3 hPa NW 2.6 km/h 5.0 km/h 99% 0.0 mm 0 W/m2
04:28 8.7 °C 8.6 °C 1027.3 hPa NNW 2.6 km/h 5.0 km/h 99% 0.0 mm 0 W/m2
04:33 8.5 °C 8.3 °C 1027.3 hPa NNW 1.1 km/h 5.0 km/h 99% 0.0 mm 0 W/m2
04:50 8.5 °C 8.3 °C 1027.3 hPa NNW 3.5 km/h 6.1 km/h 99% 0.0 mm 0 W/m2
04:55 8.5 °C 8.3 °C 1027.3 hPa NW 2.6 km/h 6.1 km/h 99% 0.0 mm 0 W/m2
04:59 8.5 °C 8.3 °C 1027.3 hPa NW 2.6 km/h 5.0 km/h 99% 0.0 mm 0 W/m2
05:04 8.5 °C 8.3 °C 1027.3 hPa NW 2.6 km/h 5.0 km/h 99% 0.0 mm 0 W/m2
05:09 8.5 °C 8.3 °C 1027.3 hPa NW 3.5 km/h 5.0 km/h 99% 0.0 mm 0 W/m2
05:14 8.5 °C 8.3 °C 1027.7 hPa NW 3.5 km/h 6.1 km/h 99% 0.0 mm 0 W/m2
05:19 8.5 °C 8.3 °C 1027.7 hPa NW 3.5 km/h 6.1 km/h 99% 0.0 mm 0 W/m2
05:24 8.5 °C 8.3 °C 1027.3 hPa NW 3.5 km/h 6.1 km/h 99% 0.0 mm 0 W/m2
05:29 8.5 °C 8.3 °C 1027.7 hPa NW 3.5 km/h 6.1 km/h 99% 0.0 mm 0 W/m2
05:34 8.5 °C 8.3 °C 1027.7 hPa NW 3.5 km/h 6.1 km/h 99% 0.0 mm 0 W/m2
05:39 8.7 °C 8.6 °C 1027.7 hPa NW 3.5 km/h 6.1 km/h 99% 0.0 mm 0 W/m2
05:44 8.7 °C 8.6 °C 1027.7 hPa NW 3.5 km/h 7.2 km/h 99% 0.0 mm 0 W/m2
05:49 8.7 °C 8.6 °C 1027.7 hPa NW 3.5 km/h 7.2 km/h 99% 0.0 mm 0 W/m2
05:54 8.7 °C 8.6 °C 1027.7 hPa NW 3.5 km/h 7.2 km/h 99% 0.0 mm 0 W/m2
05:59 8.7 °C 8.6 °C 1027.7 hPa NW 3.5 km/h 7.2 km/h 99% 0.0 mm 0 W/m2
06:04 8.7 °C 8.6 °C 1028.0 hPa NW 3.5 km/h 7.2 km/h 99% 0.0 mm 0 W/m2
06:09 8.7 °C 8.6 °C 1028.0 hPa NW 3.5 km/h 6.1 km/h 99% 0.0 mm 0 W/m2
06:14 8.7 °C 8.6 °C 1028.0 hPa NW 3.5 km/h 6.1 km/h 99% 0.0 mm 0 W/m2
06:19 8.8 °C 8.7 °C 1028.0 hPa NW 3.5 km/h 6.1 km/h 99% 0.0 mm 0 W/m2
06:24 8.8 °C 8.7 °C 1028.0 hPa NNW 3.5 km/h 6.1 km/h 99% 0.0 mm 0 W/m2
06:29 8.7 °C 8.6 °C 1028.0 hPa NNW 3.5 km/h 7.2 km/h 99% 0.0 mm 0 W/m2
06:34 8.7 °C 8.6 °C 1028.0 hPa NW 3.5 km/h 7.2 km/h 99% 0.0 mm 0 W/m2
06:39 8.7 °C 8.6 °C 1028.3 hPa NNW 2.6 km/h 6.1 km/h 99% 0.0 mm 0 W/m2
06:44 8.5 °C 8.3 °C 1028.3 hPa NNW 3.5 km/h 6.1 km/h 99% 0.0 mm 0 W/m2
06:49 8.5 °C 8.3 °C 1028.3 hPa NNW 3.5 km/h 6.1 km/h 99% 0.0 mm 0 W/m2
06:54 8.5 °C 8.3 °C 1028.3 hPa NNW 3.5 km/h 7.2 km/h 99% 0.0 mm 0 W/m2
06:59 8.5 °C 8.3 °C 1028.3 hPa NW 3.5 km/h 7.2 km/h 99% 0.0 mm 0 W/m2
07:04 8.5 °C 8.3 °C 1028.3 hPa NW 3.5 km/h 6.1 km/h 99% 0.0 mm 0 W/m2
07:09 8.5 °C 8.3 °C 1028.3 hPa NW 5.0 km/h 6.1 km/h 99% 0.0 mm 0 W/m2
07:14 8.5 °C 8.3 °C 1028.7 hPa NW 5.0 km/h 7.2 km/h 99% 0.0 mm 0 W/m2
07:19 8.5 °C 8.3 °C 1028.7 hPa NW 5.0 km/h 7.2 km/h 99% 0.0 mm 0 W/m2
07:24 8.5 °C 8.3 °C 1028.7 hPa NW 3.5 km/h 6.1 km/h 99% 0.0 mm 0 W/m2
07:30 8.5 °C 8.3 °C 1028.7 hPa NNW 3.5 km/h 6.1 km/h 99% 0.0 mm 0 W/m2
07:35 8.5 °C 8.3 °C 1028.7 hPa NNW 3.5 km/h 6.1 km/h 99% 0.0 mm 0 W/m2
07:40 8.5 °C 8.3 °C 1028.7 hPa NNW 3.5 km/h 6.1 km/h 99% 0.0 mm 2 W/m2
07:45 8.5 °C 8.3 °C 1028.7 hPa NNW 2.6 km/h 6.1 km/h 99% 0.0 mm 4 W/m2
07:50 8.7 °C 8.6 °C 1028.7 hPa NNW 1.1 km/h 6.1 km/h 99% 0.0 mm 6 W/m2
07:55 8.7 °C 8.6 °C 1028.7 hPa NNW 2.6 km/h 5.0 km/h 99% 0.0 mm 9 W/m2
08:00 8.7 °C 8.6 °C 1029.0 hPa NNW 2.6 km/h 6.1 km/h 99% 0.0 mm 13 W/m2
08:05 8.7 °C 8.6 °C 1029.0 hPa NNW 2.6 km/h 6.1 km/h 99% 0.0 mm 17 W/m2
08:10 8.7 °C 8.6 °C 1029.0 hPa NNW 2.6 km/h 5.0 km/h 99% 0.0 mm 20 W/m2
08:15 8.8 °C 8.7 °C 1029.0 hPa NNW 1.1 km/h 6.1 km/h 99% 0.0 mm 23 W/m2
08:25 9.0 °C 8.8 °C 1029.3 hPa Calm   6.1 km/h 99% 0.0 mm 28 W/m2
08:30 9.1 °C 8.9 °C 1029.3 hPa NNW 3.5 km/h 6.1 km/h 99% 0.0 mm 32 W/m2
08:35 9.2 °C 9.1 °C 1029.3 hPa NW 3.5 km/h 6.1 km/h 99% 0.0 mm 36 W/m2
08:40 9.2 °C 9.1 °C 1029.3 hPa NNW 5.0 km/h 7.2 km/h 99% 0.0 mm 39 W/m2
08:45 9.3 °C 9.2 °C 1029.3 hPa NNW 3.5 km/h 7.2 km/h 99% 0.0 mm 43 W/m2
08:50 9.4 °C 9.3 °C 1029.3 hPa NNW 3.5 km/h 7.2 km/h 99% 0.0 mm 47 W/m2
09:11 9.7 °C 9.6 °C 1029.3 hPa NW 3.5 km/h 7.2 km/h 99% 0.0 mm 60 W/m2
09:16 9.8 °C 9.7 °C 1029.7 hPa NNW 5.0 km/h 7.2 km/h 99% 0.0 mm 61 W/m2
09:21 9.8 °C 9.7 °C 1029.7 hPa NNW 3.5 km/h 7.2 km/h 99% 0.0 mm 63 W/m2
09:26 10.0 °C 9.8 °C 1029.7 hPa NNW 5.0 km/h 7.2 km/h 99% 0.0 mm 71 W/m2
09:31 10.1 °C 9.9 °C 1029.7 hPa NNW 3.5 km/h 7.2 km/h 99% 0.0 mm 75 W/m2
09:36 10.2 °C 10.1 °C 1029.7 hPa NNW 6.1 km/h 8.7 km/h 99% 0.0 mm 82 W/m2
09:41 10.2 °C 10.1 °C 1029.7 hPa NNW 5.0 km/h 8.7 km/h 99% 0.0 mm 89 W/m2
09:46 10.4 °C 10.3 °C 1029.7 hPa NNW 5.0 km/h 8.7 km/h 99% 0.0 mm 96 W/m2
09:51 10.6 °C 10.4 °C 1029.7 hPa NNW 3.5 km/h 7.2 km/h 99% 0.0 mm 97 W/m2
09:56 10.7 °C 10.6 °C 1029.7 hPa NNW 3.5 km/h 7.2 km/h 99% 0.0 mm 101 W/m2
10:01 10.9 °C 10.8 °C 1029.7 hPa North 2.6 km/h 7.2 km/h 99% 0.0 mm 109 W/m2
10:06 11.1 °C 10.8 °C 1029.7 hPa NNW 5.0 km/h 6.1 km/h 98% 0.0 mm 119 W/m2
10:11 11.2 °C 10.9 °C 1029.7 hPa NNW 1.1 km/h 7.2 km/h 98% 0.0 mm 125 W/m2
10:16 11.5 °C 11.2 °C 1029.7 hPa NNW 3.5 km/h 7.2 km/h 98% 0.0 mm 112 W/m2
10:21 11.5 °C 11.2 °C 1029.7 hPa NNW 5.0 km/h 7.2 km/h 98% 0.0 mm 121 W/m2
10:26 11.6 °C 11.3 °C 1029.7 hPa NW 5.0 km/h 7.2 km/h 98% 0.0 mm 142 W/m2
10:31 11.8 °C 11.5 °C 1030.0 hPa NW 3.5 km/h 7.2 km/h 98% 0.0 mm 143 W/m2
10:36 12.1 °C 11.7 °C 1030.0 hPa NNW 3.5 km/h 7.2 km/h 97% 0.0 mm 137 W/m2
10:41 12.2 °C 11.7 °C 1030.0 hPa NNW 2.6 km/h 6.1 km/h 97% 0.0 mm 144 W/m2
10:46 12.4 °C 11.8 °C 1030.0 hPa NNW 1.1 km/h 6.1 km/h 96% 0.0 mm 145 W/m2
10:51 12.9 °C 12.1 °C 1030.0 hPa NW 1.1 km/h 6.1 km/h 95% 0.0 mm 141 W/m2
10:56 13.4 °C 12.3 °C 1029.7 hPa NW 2.6 km/h 7.2 km/h 93% 0.0 mm 148 W/m2
11:01 13.5 °C 12.1 °C 1029.7 hPa WNW 2.6 km/h 7.2 km/h 91% 0.0 mm 140 W/m2
11:06 13.5 °C 11.7 °C 1029.7 hPa WNW 1.1 km/h 5.0 km/h 89% 0.0 mm 133 W/m2
11:11 13.9 °C 11.9 °C 1029.7 hPa WNW 1.1 km/h 5.0 km/h 88% 0.0 mm 143 W/m2
11:16 14.4 °C 12.1 °C 1030.0 hPa NW 1.1 km/h 3.5 km/h 86% 0.0 mm 136 W/m2
11:21 15.1 °C 12.4 °C 1030.0 hPa West 5.0 km/h 8.7 km/h 84% 0.0 mm 118 W/m2
11:26 14.9 °C 11.8 °C 1029.7 hPa SW 3.5 km/h 8.7 km/h 82% 0.0 mm 112 W/m2
11:31 15.7 °C 12.1 °C 1030.0 hPa SSW 2.6 km/h 8.7 km/h 79% 0.0 mm 112 W/m2
11:36 15.7 °C 11.5 °C 1029.7 hPa SSE 6.1 km/h 7.2 km/h 76% 0.0 mm 105 W/m2
11:41 15.3 °C 11.1 °C 1030.0 hPa South 7.2 km/h 9.7 km/h 76% 0.0 mm 110 W/m2
11:46 14.9 °C 11.1 °C 1030.0 hPa South 6.1 km/h 9.7 km/h 78% 0.0 mm 110 W/m2
11:51 14.1 °C 10.9 °C 1029.7 hPa South 6.1 km/h 9.7 km/h 81% 0.0 mm 130 W/m2
11:56 13.7 °C 10.9 °C 1029.7 hPa South 6.1 km/h 9.7 km/h 83% 0.0 mm 121 W/m2
12:01 14.5 °C 11.4 °C 1029.7 hPa South 7.2 km/h 11.1 km/h 82% 0.0 mm 128 W/m2
12:20 14.2 °C 11.2 °C 1029.7 hPa SSW 8.7 km/h 12.2 km/h 82% 0.0 mm 120 W/m2
12:25 14.9 °C 11.7 °C 1029.7 hPa SSW 7.2 km/h 11.1 km/h 81% 0.0 mm 110 W/m2
12:30 15.3 °C 11.5 °C 1029.7 hPa South 8.7 km/h 11.1 km/h 78% 0.0 mm 95 W/m2
12:35 15.1 °C 11.1 °C 1029.7 hPa SSW 6.1 km/h 12.2 km/h 77% 0.0 mm 90 W/m2
12:40 14.2 °C 10.4 °C 1029.7 hPa SSW 8.7 km/h 13.4 km/h 78% 0.0 mm 90 W/m2
12:45 14.3 °C 11.1 °C 1029.7 hPa SSW 5.0 km/h 13.4 km/h 81% 0.0 mm 105 W/m2
12:50 15.4 °C 11.8 °C 1029.7 hPa SSW 6.1 km/h 13.4 km/h 79% 0.0 mm 115 W/m2
12:55 15.5 °C 11.3 °C 1029.7 hPa South 8.7 km/h 12.2 km/h 76% 0.0 mm 125 W/m2
13:00 15.0 °C 11.0 °C 1029.7 hPa South 7.2 km/h 12.2 km/h 77% 0.0 mm 155 W/m2
13:05 14.9 °C 11.1 °C 1029.7 hPa SSW 6.1 km/h 12.2 km/h 78% 0.0 mm 154 W/m2
13:10 14.4 °C 11.0 °C 1029.7 hPa SSW 5.0 km/h 9.7 km/h 80% 0.0 mm 159 W/m2
13:16 14.6 °C 11.2 °C 1029.7 hPa South 9.7 km/h 11.1 km/h 80% 0.0 mm 177 W/m2
13:21 15.1 °C 11.5 °C 1029.7 hPa South 5.0 km/h 11.1 km/h 79% 0.0 mm 168 W/m2
13:26 14.8 °C 11.2 °C 1029.7 hPa SSW 6.1 km/h 11.1 km/h 79% 0.0 mm 158 W/m2
13:31 14.5 °C 11.3 °C 1029.7 hPa SSW 7.2 km/h 9.7 km/h 81% 0.0 mm 183 W/m2
13:36 14.4 °C 11.2 °C 1029.3 hPa SSW 6.1 km/h 9.7 km/h 81% 0.0 mm 147 W/m2
13:41 14.0 °C 11.0 °C 1029.3 hPa South 3.5 km/h 9.7 km/h 82% 0.0 mm 136 W/m2
13:46 13.8 °C 10.9 °C 1029.3 hPa South 6.1 km/h 8.7 km/h 83% 0.0 mm 127 W/m2
13:51 13.6 °C 11.1 °C 1029.7 hPa South 6.1 km/h 8.7 km/h 85% 0.0 mm 123 W/m2
13:56 13.8 °C 11.3 °C 1029.3 hPa South 3.5 km/h 8.7 km/h 85% 0.0 mm 154 W/m2
14:01 13.7 °C 11.2 °C 1029.3 hPa SSE 6.1 km/h 9.7 km/h 85% 0.0 mm 140 W/m2
14:06 13.6 °C 11.1 °C 1029.3 hPa South 8.7 km/h 12.2 km/h 85% 0.0 mm 133 W/m2
14:11 13.5 °C 11.1 °C 1029.3 hPa South 2.6 km/h 12.2 km/h 85% 0.0 mm 129 W/m2
14:16 13.7 °C 11.2 °C 1029.0 hPa South 2.6 km/h 12.2 km/h 85% 0.0 mm 131 W/m2
14:21 14.5 °C 11.8 °C 1029.0 hPa SSE 5.0 km/h 7.2 km/h 84% 0.0 mm 273 W/m2
14:26 15.7 °C 12.1 °C 1029.0 hPa SSE 5.0 km/h 7.2 km/h 79% 0.0 mm 241 W/m2
14:31 16.4 °C 11.9 °C 1029.0 hPa SSE 3.5 km/h 8.7 km/h 75% 0.0 mm 233 W/m2
14:36 16.0 °C 11.2 °C 1029.3 hPa SE 3.5 km/h 11.1 km/h 73% 0.0 mm 192 W/m2
14:41 15.2 °C 10.8 °C 1029.3 hPa SE 2.6 km/h 11.1 km/h 75% 0.0 mm 161 W/m2
14:46 14.8 °C 11.0 °C 1029.3 hPa SSE 2.6 km/h 8.7 km/h 78% 0.0 mm 115 W/m2
14:51 14.4 °C 11.0 °C 1029.3 hPa SE 5.0 km/h 11.1 km/h 80% 0.0 mm 95 W/m2
14:56 13.8 °C 10.9 °C 1029.3 hPa SE 3.5 km/h 11.1 km/h 83% 0.0 mm 184 W/m2
15:01 13.8 °C 11.3 °C 1029.3 hPa SE 5.0 km/h 8.7 km/h 85% 0.0 mm 87 W/m2
15:06 13.7 °C 11.2 °C 1029.7 hPa SE 2.6 km/h 8.7 km/h 85% 0.0 mm 77 W/m2
15:11 13.5 °C 11.1 °C 1029.7 hPa SE 2.6 km/h 7.2 km/h 85% 0.0 mm 94 W/m2
15:16 14.1 °C 11.4 °C 1029.7 hPa ESE 3.5 km/h 7.2 km/h 84% 0.0 mm 133 W/m2
15:21 14.5 °C 11.8 °C 1029.7 hPa SE 3.5 km/h 6.1 km/h 84% 0.0 mm 77 W/m2
15:26 14.0 °C 11.0 °C 1029.3 hPa SE 5.0 km/h 7.2 km/h 82% 0.0 mm 72 W/m2
15:31 13.7 °C 11.1 °C 1029.7 hPa SE 2.6 km/h 7.2 km/h 84% 0.0 mm 65 W/m2
15:36 14.1 °C 11.4 °C 1029.7 hPa SE 1.1 km/h 6.1 km/h 84% 0.0 mm 66 W/m2
15:41 14.1 °C 11.3 °C 1029.7 hPa SE 1.1 km/h 6.1 km/h 83% 0.0 mm 66 W/m2
15:46 14.0 °C 11.2 °C 1029.7 hPa SE 1.1 km/h 7.2 km/h 83% 0.0 mm 45 W/m2
15:51 13.5 °C 11.1 °C 1029.7 hPa SE 2.6 km/h 7.2 km/h 85% 0.0 mm 40 W/m2
15:56 13.2 °C 10.7 °C 1029.7 hPa ESE 5.0 km/h 7.2 km/h 85% 0.0 mm 39 W/m2
16:01 13.0 °C 10.7 °C 1029.7 hPa East 2.6 km/h 7.2 km/h 86% 0.0 mm 37 W/m2
16:06 12.9 °C 10.4 °C 1029.3 hPa Calm   7.2 km/h 85% 0.0 mm 30 W/m2
16:11 12.9 °C 10.6 °C 1029.3 hPa Calm   5.0 km/h 86% 0.0 mm 27 W/m2
16:16 12.9 °C 10.6 °C 1029.3 hPa Calm   2.6 km/h 86% 0.0 mm 22 W/m2
16:21 12.8 °C 10.5 °C 1029.3 hPa Calm   1.1 km/h 86% 0.0 mm 19 W/m2
16:26 12.7 °C 10.4 °C 1029.3 hPa SE 1.1 km/h 1.1 km/h 86% 0.0 mm 14 W/m2
16:31 12.5 °C 10.2 °C 1029.7 hPa Calm   2.6 km/h 86% 0.0 mm 9 W/m2
16:36 12.3 °C 10.1 °C 1029.7 hPa Calm   2.6 km/h 86% 0.0 mm 7 W/m2
16:41 12.2 °C 10.1 °C 1029.3 hPa SE 1.1 km/h 2.6 km/h 87% 0.0 mm 4 W/m2
16:46 12.1 °C 10.2 °C 1029.3 hPa Calm   2.6 km/h 88% 0.0 mm 2 W/m2
16:51 11.8 °C 10.1 °C 1029.3 hPa Calm   2.6 km/h 89% 0.0 mm 0 W/m2
16:56 11.7 °C 10.1 °C 1029.7 hPa Calm   1.1 km/h 90% 0.0 mm 0 W/m2
17:01 11.5 °C 10.1 °C 1029.7 hPa Calm   1.1 km/h 91% 0.0 mm 0 W/m2
17:06 11.2 °C 9.8 °C 1029.7 hPa Calm   1.1 km/h 91% 0.0 mm 0 W/m2
17:11 11.1 °C 9.8 °C 1029.3 hPa Calm   1.1 km/h 92% 0.0 mm 0 W/m2
17:16 10.9 °C 9.8 °C 1029.7 hPa NE 1.1 km/h 2.6 km/h 93% 0.0 mm 0 W/m2
17:21 10.9 °C 9.8 °C 1029.3 hPa NNW 2.6 km/h 3.5 km/h 93% 0.0 mm 0 W/m2
17:26 10.7 °C 9.8 °C 1029.7 hPa NW 1.1 km/h 3.5 km/h 94% 0.0 mm 0 W/m2
17:31 10.5 °C 9.7 °C 1029.7 hPa Calm   3.5 km/h 95% 0.0 mm 0 W/m2
17:36 10.4 °C 9.8 °C 1029.7 hPa Calm   2.6 km/h 96% 0.0 mm 0 W/m2
17:41 10.2 °C 9.6 °C 1029.7 hPa Calm   2.6 km/h 96% 0.0 mm 0 W/m2
17:46 10.0 °C 9.4 °C 1029.7 hPa Calm   2.6 km/h 96% 0.0 mm 0 W/m2
17:51 9.8 °C 9.3 °C 1029.7 hPa North 1.1 km/h 2.6 km/h 97% 0.0 mm 0 W/m2
17:56 9.6 °C 9.3 °C 1029.7 hPa Calm   2.6 km/h 98% 0.0 mm 0 W/m2
18:01 9.3 °C 9.0 °C 1030.0 hPa North 1.1 km/h 2.6 km/h 98% 0.0 mm 0 W/m2
18:06 9.3 °C 9.0 °C 1030.0 hPa Calm   3.5 km/h 98% 0.0 mm 0 W/m2
18:11 9.2 °C 9.1 °C 1030.0 hPa Calm   3.5 km/h 99% 0.0 mm 0 W/m2
18:16 9.0 °C 8.8 °C 1030.0 hPa Calm   2.6 km/h 99% 0.0 mm 0 W/m2
18:21 8.9 °C 8.8 °C 1030.0 hPa Calm   2.6 km/h 99% 0.0 mm 0 W/m2
18:26 8.9 °C 8.8 °C 1030.0 hPa NNE 2.6 km/h 3.5 km/h 99% 0.0 mm 0 W/m2
18:31 8.8 °C 8.7 °C 1030.0 hPa Calm   3.5 km/h 99% 0.0 mm 0 W/m2
18:36 8.7 °C 8.6 °C 1030.0 hPa Calm   2.6 km/h 99% 0.0 mm 0 W/m2
18:41 8.6 °C 8.4 °C 1030.4 hPa NNE 1.1 km/h 3.5 km/h 99% 0.0 mm 0 W/m2
18:46 8.5 °C 8.3 °C 1030.4 hPa North 1.1 km/h 3.5 km/h 99% 0.0 mm 0 W/m2
18:51 8.4 °C 8.3 °C 1030.4 hPa North 1.1 km/h 3.5 km/h 99% 0.0 mm 0 W/m2
18:56 8.2 °C 8.1 °C 1030.4 hPa Calm   3.5 km/h 99% 0.0 mm 0 W/m2
19:01 8.2 °C 8.1 °C 1030.4 hPa NE 1.1 km/h 3.5 km/h 99% 0.0 mm 0 W/m2
19:06 8.2 °C 8.1 °C 1030.4 hPa NNE 1.1 km/h 3.5 km/h 99% 0.0 mm 0 W/m2
19:11 8.1 °C 7.9 °C 1030.7 hPa North 1.1 km/h 3.5 km/h 99% 0.0 mm 0 W/m2
19:16 7.9 °C 7.4 °C 1030.7 hPa NNW 2.6 km/h 5.0 km/h 97% 0.0 mm 0 W/m2
19:21 7.9 °C 7.4 °C 1030.7 hPa NW 3.5 km/h 5.0 km/h 97% 0.0 mm 0 W/m2
19:26 7.8 °C 7.3 °C 1030.7 hPa NW 2.6 km/h 5.0 km/h 97% 0.0 mm 0 W/m2
19:31 7.8 °C 7.3 °C 1030.7 hPa NNW 1.1 km/h 5.0 km/h 97% 0.0 mm 0 W/m2
19:36 7.7 °C 7.3 °C 1030.7 hPa NNE 1.1 km/h 3.5 km/h 97% 0.0 mm 0 W/m2
19:41 7.7 °C 7.3 °C 1031.0 hPa North 1.1 km/h 3.5 km/h 97% 0.0 mm 0 W/m2
19:46 7.7 °C 7.3 °C 1030.7 hPa Calm   3.5 km/h 97% 0.0 mm 0 W/m2
19:51 7.6 °C 7.2 °C 1031.0 hPa North 2.6 km/h 3.5 km/h 97% 0.0 mm 0 W/m2
19:56 7.6 °C 7.2 °C 1031.0 hPa North 2.6 km/h 3.5 km/h 97% 0.0 mm 0 W/m2
20:01 7.6 °C 7.2 °C 1031.0 hPa North 1.1 km/h 3.5 km/h 97% 0.0 mm 0 W/m2
20:06 7.6 °C 7.2 °C 1031.0 hPa North 1.1 km/h 3.5 km/h 97% 0.0 mm 0 W/m2
20:11 7.7 °C 7.3 °C 1031.0 hPa North 1.1 km/h 3.5 km/h 97% 0.0 mm 0 W/m2
20:16 7.7 °C 7.3 °C 1031.0 hPa North 1.1 km/h 2.6 km/h 97% 0.0 mm 0 W/m2
20:21 7.6 °C 7.2 °C 1031.0 hPa North 1.1 km/h 2.6 km/h 97% 0.0 mm 0 W/m2
20:26 7.6 °C 7.2 °C 1031.4 hPa North 2.6 km/h 3.5 km/h 97% 0.0 mm 0 W/m2
20:31 7.7 °C 7.3 °C 1031.0 hPa North 1.1 km/h 3.5 km/h 97% 0.0 mm 0 W/m2
20:36 7.6 °C 7.2 °C 1031.0 hPa North 1.1 km/h 3.5 km/h 97% 0.0 mm 0 W/m2
20:41 7.6 °C 7.2 °C 1031.0 hPa Calm   3.5 km/h 97% 0.0 mm 0 W/m2
20:44 7.6 °C 7.2 °C 1031.0 hPa Calm   2.6 km/h 97% 0.0 mm 0 W/m2
20:49 7.6 °C 7.2 °C 1031.0 hPa North 1.1 km/h 3.5 km/h 97% 0.0 mm 0 W/m2
20:54 7.6 °C 7.2 °C 1031.0 hPa NNW 1.1 km/h 5.0 km/h 97% 0.0 mm 0 W/m2
20:59 7.7 °C 7.3 °C 1031.0 hPa North 1.1 km/h 5.0 km/h 97% 0.0 mm 0 W/m2
21:04 7.8 °C 7.3 °C 1031.0 hPa NNE 1.1 km/h 3.5 km/h 97% 0.0 mm 0 W/m2
21:09 7.8 °C 7.3 °C 1031.0 hPa NNE 1.1 km/h 3.5 km/h 97% 0.0 mm 0 W/m2
21:14 7.8 °C 7.3 °C 1031.0 hPa North 1.1 km/h 5.0 km/h 97% 0.0 mm 0 W/m2
21:19 7.8 °C 7.3 °C 1031.0 hPa Calm   5.0 km/h 97% 0.0 mm 0 W/m2
21:24 7.9 °C 7.4 °C 1031.4 hPa NNW 2.6 km/h 3.5 km/h 97% 0.0 mm 0 W/m2
21:29 7.9 °C 7.4 °C 1031.0 hPa NNW 2.6 km/h 5.0 km/h 97% 0.0 mm 0 W/m2
21:34 7.9 °C 7.4 °C 1031.4 hPa NNW 3.5 km/h 6.1 km/h 97% 0.0 mm 0 W/m2
21:39 8.0 °C 7.8 °C 1031.4 hPa NNW 2.6 km/h 6.1 km/h 99% 0.0 mm 0 W/m2
21:44 8.0 °C 7.8 °C 1031.4 hPa North 1.1 km/h 5.0 km/h 99% 0.0 mm 0 W/m2
21:49 8.0 °C 7.8 °C 1031.4 hPa North 2.6 km/h 5.0 km/h 99% 0.0 mm 0 W/m2
21:54 8.0 °C 7.8 °C 1031.4 hPa NNE 1.1 km/h 5.0 km/h 99% 0.0 mm 0 W/m2
21:59 8.0 °C 7.8 °C 1031.4 hPa NE 2.6 km/h 3.5 km/h 99% 0.0 mm 0 W/m2
22:04 8.0 °C 7.8 °C 1031.0 hPa NNE 2.6 km/h 5.0 km/h 99% 0.0 mm 0 W/m2
22:09 8.0 °C 7.8 °C 1031.0 hPa North 1.1 km/h 5.0 km/h 99% 0.0 mm 0 W/m2
22:14 8.0 °C 7.8 °C 1031.0 hPa NNW 1.1 km/h 5.0 km/h 99% 0.0 mm 0 W/m2
22:19 8.0 °C 7.8 °C 1031.4 hPa NNW 5.0 km/h 6.1 km/h 99% 0.0 mm 0 W/m2
22:24 8.0 °C 7.8 °C 1031.4 hPa NW 3.5 km/h 6.1 km/h 99% 0.0 mm 0 W/m2
22:29 8.0 °C 7.8 °C 1031.4 hPa NW 3.5 km/h 6.1 km/h 99% 0.0 mm 0 W/m2
22:34 8.0 °C 7.8 °C 1031.0 hPa NNW 2.6 km/h 6.1 km/h 99% 0.0 mm 0 W/m2
22:39 7.9 °C 7.4 °C 1031.4 hPa Calm   6.1 km/h 97% 0.0 mm 0 W/m2
22:44 7.9 °C 7.4 °C 1031.0 hPa NNE 2.6 km/h 5.0 km/h 97% 0.0 mm 0 W/m2
22:49 8.0 °C 7.8 °C 1031.4 hPa North 1.1 km/h 5.0 km/h 99% 0.0 mm 0 W/m2
22:55 8.1 °C 7.9 °C 1031.0 hPa NNW 2.6 km/h 6.1 km/h 99% 0.0 mm 0 W/m2
23:00 8.1 °C 7.9 °C 1031.0 hPa NNW 1.1 km/h 6.1 km/h 99% 0.0 mm 0 W/m2
23:05 8.1 °C 7.9 °C 1031.4 hPa NNW 1.1 km/h 5.0 km/h 99% 0.0 mm 0 W/m2
23:10 8.1 °C 7.9 °C 1031.4 hPa North 1.1 km/h 3.5 km/h 99% 0.0 mm 0 W/m2
23:15 8.1 °C 7.9 °C 1031.0 hPa North 2.6 km/h 5.0 km/h 99% 0.0 mm 0 W/m2
23:20 8.0 °C 7.8 °C 1031.0 hPa NNW 3.5 km/h 8.7 km/h 99% 0.0 mm 0 W/m2
23:25 8.1 °C 7.9 °C 1031.0 hPa NNW 1.1 km/h 8.7 km/h 99% 0.0 mm 0 W/m2
23:30 8.1 °C 7.9 °C 1031.0 hPa NNW 5.0 km/h 7.2 km/h 99% 0.0 mm 0 W/m2
23:35 8.2 °C 8.1 °C 1031.0 hPa NNW 5.0 km/h 8.7 km/h 99% 0.0 mm 0 W/m2
23:40 8.1 °C 7.9 °C 1031.0 hPa NW 6.1 km/h 8.7 km/h 99% 0.0 mm 0 W/m2
23:45 8.1 °C 7.9 °C 1031.4 hPa NNW 6.1 km/h 9.7 km/h 99% 0.0 mm 0 W/m2
23:50 8.0 °C 7.8 °C 1031.0 hPa NNW 6.1 km/h 9.7 km/h 99% 0.0 mm 0 W/m2
23:55 8.1 °C 7.9 °C 1031.0 hPa NNW 3.5 km/h 9.7 km/h 99% 0.0 mm 0 W/m2
Northern Hawkes Bay. New Zealand Historic Data
Compliments of Weather Underground - 2.25 mb